Time;durP1;ratioP1;P1;durP2;ratioP2;P2;SDS_P1;SDS_P2;PMS_P1;PMS_P2;Temp;Humidity;BMP_temperature;BMP_pressure;BME280_temperature;BME280_humidity;BME280_pressure;Samples;Min_cycle;Max_cycle;Signal;HPM_P1;HPM_P2
2023/05/01 00:00:10;;;;;;;1999.90;999.90;;;25.50;94.90;;;;;;5047699;28;20028;-73
2023/05/01 00:02:38;;;;;;;1999.90;999.90;;;26.10;93.70;;;;;;5043093;28;20025;-73
2023/05/01 00:05:06;;;;;;;1999.90;999.90;;;26.30;92.60;;;;;;5050334;28;20028;-73
2023/05/01 00:07:34;;;;;;;1999.90;999.90;;;26.30;92.80;;;;;;5047475;28;20095;-72
2023/05/01 00:10:01;;;;;;;1999.90;999.90;;;26.70;91.20;;;;;;5042703;28;20522;-72
2023/05/01 00:12:29;;;;;;;1999.90;999.90;;;26.60;91.70;;;;;;5049310;28;20025;-72
2023/05/01 00:14:57;;;;;;;1999.90;999.90;;;26.60;90.60;;;;;;5048369;28;20024;-73
2023/05/01 00:17:27;;;;;;;1999.90;999.90;;;26.60;90.60;;;;;;5051919;28;20457;-72
2023/05/01 00:19:54;;;;;;;1999.90;999.90;;;26.20;91.10;;;;;;5046527;28;20818;-72
2023/05/01 00:22:22;;;;;;;1999.90;999.90;;;26.20;91.40;;;;;;5050565;28;20631;-72
2023/05/01 00:24:49;;;;;;;1999.90;999.90;;;26.40;91.30;;;;;;5041780;28;20029;-73
2023/05/01 00:27:16;;;;;;;1999.90;999.90;;;26.80;89.50;;;;;;5046798;28;20051;-73
2023/05/01 00:29:44;;;;;;;1999.90;999.90;;;27.10;88.10;;;;;;5049412;28;20017;-73
2023/05/01 00:32:12;;;;;;;1999.90;999.90;;;27.10;89.10;;;;;;5053931;28;20033;-76
2023/05/01 00:34:39;;;;;;;1999.90;999.90;;;27.30;89.80;;;;;;5045753;28;20535;-72
2023/05/01 00:37:07;;;;;;;1999.90;999.90;;;27.50;87.80;;;;;;5052482;28;20094;-75
2023/05/01 00:39:34;;;;;;;1999.90;999.90;;;27.40;87.50;;;;;;5043702;28;20057;-74
2023/05/01 00:42:02;;;;;;;1999.90;999.90;;;27.50;87.10;;;;;;5062089;28;20487;-73
2023/05/01 00:44:30;;;;;;;1999.90;999.90;;;27.30;86.60;;;;;;5050973;28;20037;-73
2023/05/01 00:46:59;;;;;;;1999.90;999.90;;;27.20;89.10;;;;;;5061778;28;20045;-76
2023/05/01 00:49:27;;;;;;;1999.90;999.90;;;27.20;89.20;;;;;;5055226;28;20032;-77
2023/05/01 00:51:55;;;;;;;1999.90;999.90;;;27.50;88.60;;;;;;5044291;28;20058;-73
2023/05/01 00:54:24;;;;;;;1999.90;999.90;;;27.50;88.50;;;;;;5054786;28;20025;-73
2023/05/01 00:56:51;;;;;;;1999.90;999.90;;;27.90;87.00;;;;;;5051063;28;20036;-73
2023/05/01 00:59:19;;;;;;;1999.90;999.90;;;28.20;86.30;;;;;;5047216;28;20037;-73
2023/05/01 01:01:46;;;;;;;1999.90;999.90;;;28.40;85.40;;;;;;5051726;28;20038;-72
2023/05/01 01:04:13;;;;;;;1999.90;999.90;;;28.50;85.20;;;;;;5050754;28;20020;-72
2023/05/01 01:06:57;;;;;;;1999.90;999.90;;;28.40;85.20;;;;;;5053908;28;20168;-72
2023/05/01 01:09:52;;;;;;;1999.90;999.90;;;28.40;86.70;;;;;;5054774;28;20471;-71
2023/05/01 01:12:27;;;;;;;1999.90;999.90;;;28.70;86.40;;;;;;5055309;28;20037;-71
2023/05/01 01:15:23;;;;;;;1999.90;999.90;;;29.10;83.10;;;;;;5049198;28;20395;-72
2023/05/01 01:17:52;;;;;;;;;;;29.30;82.70;;;;;;5053482;28;20093;-72
2023/05/01 01:20:34;;;;;;;1999.90;999.90;;;29.00;81.70;;;;;;5049302;28;19904;-72
2023/05/01 01:23:25;;;;;;;1999.90;999.90;;;28.70;83.60;;;;;;5049385;28;20036;-73
2023/05/01 01:26:16;;;;;;;1999.90;999.90;;;29.00;83.40;;;;;;5052195;28;20037;-73
2023/05/01 01:29:19;;;;;;;1999.90;999.90;;;29.40;82.40;;;;;;5054379;28;20033;-72
2023/05/01 01:32:42;;;;;;;1999.90;999.90;;;29.40;82.70;;;;;;5050322;28;20033;-73
2023/05/01 01:35:30;;;;;;;1999.90;999.90;;;29.40;81.80;;;;;;5022965;28;20135;-74
2023/05/01 01:38:02;;;;;;;1999.90;999.90;;;29.20;82.20;;;;;;5052431;28;20028;-71
2023/05/01 01:40:43;;;;;;;1999.90;999.90;;;28.10;81.50;;;;;;5040829;28;20551;-72
2023/05/01 01:43:15;;;;;;;1999.90;999.90;;;27.80;84.30;;;;;;5050160;28;20032;-73
2023/05/01 01:45:46;;;;;;;1999.90;999.90;;;27.70;84.30;;;;;;5044344;28;20461;-72
2023/05/01 01:48:18;;;;;;;1999.90;999.90;;;27.90;84.00;;;;;;5045343;28;20033;-71
2023/05/01 01:50:47;;;;;;;1999.90;999.90;;;27.90;83.30;;;;;;5044720;28;20032;-71
2023/05/01 01:53:17;;;;;;;1999.90;999.90;;;28.20;85.50;;;;;;5045373;28;20480;-71
2023/05/01 01:55:48;;;;;;;1999.90;999.90;;;28.60;84.70;;;;;;5044364;28;20040;-71
2023/05/01 01:58:18;;;;;;;1999.90;999.90;;;29.00;81.80;;;;;;5044740;28;20078;-71
2023/05/01 02:00:46;;;;;;;1999.90;999.90;;;29.10;82.20;;;;;;5043726;28;20582;-71
2023/05/01 02:03:14;;;;;;;1999.90;999.90;;;29.00;82.30;;;;;;5050779;28;20061;-71
2023/05/01 02:05:43;;;;;;;1999.90;999.90;;;28.60;81.90;;;;;;5038564;28;20040;-71
2023/05/01 02:08:12;;;;;;;1999.90;999.90;;;28.30;82.40;;;;;;5040257;28;20032;-72
2023/05/01 02:10:41;;;;;;;1999.90;999.90;;;27.90;83.70;;;;;;5048829;28;20052;-71
2023/05/01 02:13:09;;;;;;;1999.90;999.90;;;28.10;84.30;;;;;;5048357;28;20036;-71
2023/05/01 02:15:39;;;;;;;1999.90;999.90;;;28.40;82.70;;;;;;5036822;28;20388;-73
2023/05/01 02:18:08;;;;;;;1999.90;999.90;;;28.60;82.20;;;;;;5037003;28;20060;-70
2023/05/01 02:20:37;;;;;;;1999.90;999.90;;;28.30;82.20;;;;;;5046083;28;20028;-71
2023/05/01 02:23:06;;;;;;;1999.90;999.90;;;28.10;82.20;;;;;;5061375;28;20048;-71
2023/05/01 02:25:38;;;;;;;1999.90;999.90;;;27.80;82.20;;;;;;5050472;28;20025;-71
2023/05/01 02:28:19;;;;;;;1999.90;999.90;;;27.50;83.00;;;;;;5052575;28;20709;-71
2023/05/01 02:30:47;;;;;;;1999.90;999.90;;;27.40;83.10;;;;;;5049844;28;20032;-71
2023/05/01 02:33:14;;;;;;;1999.90;999.90;;;27.40;81.10;;;;;;5057250;28;20032;-71
2023/05/01 02:35:43;;;;;;;1999.90;999.90;;;27.30;83.50;;;;;;5051229;28;20029;-71
2023/05/01 02:38:15;;;;;;;1999.90;999.90;;;27.50;82.90;;;;;;5055580;28;20016;-71
2023/05/01 02:40:46;;;;;;;1999.90;999.90;;;27.10;82.40;;;;;;5045000;28;20490;-71
2023/05/01 02:43:17;;;;;;;1999.90;999.90;;;27.10;82.20;;;;;;5053767;28;20112;-71
2023/05/01 02:45:45;;;;;;;1999.90;999.90;;;27.00;80.70;;;;;;5050105;28;20401;-74
2023/05/01 02:48:18;;;;;;;1999.90;999.90;;;26.90;79.80;;;;;;5059302;28;20033;-72
2023/05/01 02:50:48;;;;;;;1999.90;999.90;;;26.80;81.00;;;;;;5050129;28;20033;-73
2023/05/01 02:53:15;;;;;;;1999.90;999.90;;;27.00;83.00;;;;;;5056491;28;20024;-72
2023/05/01 02:55:44;;;;;;;1999.90;999.90;;;27.20;81.50;;;;;;5043788;28;20021;-72
2023/05/01 02:58:20;;;;;;;1999.90;999.90;;;27.20;82.30;;;;;;5055377;28;20035;-72
2023/05/01 03:00:49;;;;;;;1999.90;999.90;;;26.60;82.00;;;;;;5048187;28;20039;-72
2023/05/01 03:03:17;;;;;;;1999.90;999.90;;;25.50;82.60;;;;;;5060696;28;20765;-74
2023/05/01 03:05:44;;;;;;;1999.90;999.90;;;24.90;84.70;;;;;;5055686;28;20549;-72
2023/05/01 03:08:12;;;;;;;1999.90;999.90;;;24.60;84.30;;;;;;5050772;28;20044;-72
2023/05/01 03:10:43;;;;;;;1999.90;999.90;;;24.30;84.40;;;;;;5036754;28;20051;-73
2023/05/01 03:13:11;;;;;;;1999.90;999.90;;;24.60;85.00;;;;;;5046290;28;20029;-71
2023/05/01 03:15:38;;;;;;;1999.90;999.90;;;24.70;83.60;;;;;;5054596;28;20032;-72
2023/05/01 03:18:06;;;;;;;1999.90;999.90;;;24.80;84.60;;;;;;5055550;28;20029;-72
2023/05/01 03:20:33;;;;;;;1999.90;999.90;;;24.80;81.70;;;;;;5046788;28;20029;-72
2023/05/01 03:23:01;;;;;;;1999.90;999.90;;;24.90;83.70;;;;;;5052764;28;20109;-72
2023/05/01 03:25:28;;;;;;;1999.90;999.90;;;25.10;83.40;;;;;;5052937;28;20041;-71
2023/05/01 03:27:55;;;;;;;1999.90;999.90;;;25.40;82.70;;;;;;5058035;28;20039;-72
2023/05/01 03:30:23;;;;;;;1999.90;999.90;;;25.30;80.40;;;;;;5044829;28;20472;-72
2023/05/01 03:32:50;;;;;;;1999.90;999.90;;;25.20;83.10;;;;;;5050418;28;20041;-72
2023/05/01 03:35:18;;;;;;;1999.90;999.90;;;25.00;81.50;;;;;;5045858;28;20037;-71
2023/05/01 03:37:45;;;;;;;1999.90;999.90;;;24.90;82.60;;;;;;5049894;28;20472;-72
2023/05/01 03:40:13;;;;;;;1999.90;999.90;;;24.60;82.80;;;;;;5045062;28;20033;-72
2023/05/01 03:42:40;;;;;;;1999.90;999.90;;;24.30;83.00;;;;;;5052196;28;20036;-73
2023/05/01 03:45:08;;;;;;;1999.90;999.90;;;24.10;83.80;;;;;;5048082;28;20032;-72
2023/05/01 03:47:36;;;;;;;1999.90;999.90;;;23.80;83.10;;;;;;5045651;28;20045;-74
2023/05/01 03:50:03;;;;;;;1999.90;999.90;;;23.50;82.80;;;;;;5048248;28;20017;-73
2023/05/01 03:52:31;;;;;;;1999.90;999.90;;;23.30;83.30;;;;;;5051232;28;20032;-75
2023/05/01 03:54:58;;;;;;;1999.90;999.90;;;23.30;84.80;;;;;;5047918;28;20033;-74
2023/05/01 03:57:26;;;;;;;1999.90;999.90;;;23.50;83.40;;;;;;5056770;28;20108;-73
2023/05/01 03:59:53;;;;;;;1999.90;999.90;;;23.70;83.20;;;;;;5045035;28;20075;-72
2023/05/01 04:02:21;;;;;;;1999.90;999.90;;;23.50;83.40;;;;;;5046254;28;20053;-73
2023/05/01 04:04:48;;;;;;;1999.90;999.90;;;23.10;83.90;;;;;;5047788;28;20040;-72
2023/05/01 04:07:15;;;;;;;1999.90;999.90;;;22.80;84.60;;;;;;5051793;28;20462;-72
2023/05/01 04:09:43;;;;;;;1999.90;999.90;;;22.50;84.70;;;;;;5046752;28;20056;-72
2023/05/01 04:12:10;;;;;;;1999.90;999.90;;;22.30;84.50;;;;;;5052312;28;20040;-72
2023/05/01 04:14:37;;;;;;;1999.90;999.90;;;22.50;85.20;;;;;;5045159;28;20040;-72
2023/05/01 04:17:05;;;;;;;1999.90;999.90;;;22.80;86.00;;;;;;5053198;28;20108;-74
2023/05/01 04:19:33;;;;;;;1999.90;999.90;;;23.10;86.30;;;;;;5039080;28;20055;-73
2023/05/01 04:22:01;;;;;;;1999.90;999.90;;;23.20;85.50;;;;;;5052810;28;20037;-73
2023/05/01 04:24:28;;;;;;;1999.90;999.90;;;23.10;85.10;;;;;;5051971;28;20384;-74
2023/05/01 04:26:57;;;;;;;1999.90;999.90;;;23.00;85.30;;;;;;5053362;28;20072;-72
2023/05/01 04:29:24;;;;;;;1999.90;999.90;;;22.90;85.50;;;;;;5051640;28;20020;-73
2023/05/01 04:31:52;;;;;;;1999.90;999.90;;;22.90;85.30;;;;;;5053757;28;21729;-72
2023/05/01 04:34:19;;;;;;;1999.90;999.90;;;22.80;84.30;;;;;;5046033;28;20082;-73
2023/05/01 04:36:46;;;;;;;1999.90;999.90;;;22.80;84.50;;;;;;5046909;28;20028;-73
2023/05/01 04:39:19;;;;;;;1999.90;999.90;;;22.70;83.80;;;;;;5054425;28;20021;-73
2023/05/01 04:41:46;;;;;;;1999.90;999.90;;;22.50;83.40;;;;;;5049071;28;20033;-73
2023/05/01 04:44:14;;;;;;;1999.90;999.90;;;22.40;85.00;;;;;;5057105;28;20083;-74
2023/05/01 04:46:41;;;;;;;1999.90;999.90;;;22.20;85.70;;;;;;5049076;28;20040;-72
2023/05/01 04:49:09;;;;;;;1999.90;999.90;;;22.00;86.60;;;;;;5051063;28;20028;-73
2023/05/01 04:51:36;;;;;;;1999.90;999.90;;;21.80;87.80;;;;;;5054380;28;20115;-73
2023/05/01 04:54:04;;;;;;;1999.90;999.90;;;21.70;88.70;;;;;;5052022;28;20039;-72
2023/05/01 04:56:31;;;;;;;1999.90;999.90;;;21.50;89.20;;;;;;5041335;28;20036;-73
2023/05/01 04:58:58;;;;;;;1999.90;999.90;;;21.50;89.50;;;;;;5043364;28;20064;-74
2023/05/01 05:01:26;;;;;;;1999.90;999.90;;;21.30;90.20;;;;;;5060383;28;20110;-71
2023/05/01 05:03:53;;;;;;;1999.90;999.90;;;21.20;90.10;;;;;;5052249;28;20028;-72
2023/05/01 05:06:20;;;;;;;1999.90;999.90;;;21.10;90.30;;;;;;5047789;28;20466;-72
2023/05/01 05:08:50;;;;;;;1999.90;999.90;;;21.00;90.50;;;;;;5048144;28;20031;-72
2023/05/01 05:11:18;;;;;;;1999.90;999.90;;;20.90;90.70;;;;;;5043029;28;20076;-72
2023/05/01 05:13:46;;;;;;;1999.90;999.90;;;20.70;90.50;;;;;;5050803;28;20039;-74
2023/05/01 05:16:14;;;;;;;1999.90;999.90;;;20.60;90.30;;;;;;5043575;28;20029;-73
2023/05/01 05:18:41;;;;;;;1999.90;999.90;;;20.50;90.30;;;;;;5044691;28;20230;-73
2023/05/01 05:21:09;;;;;;;1999.90;999.90;;;20.40;90.80;;;;;;5047103;28;20159;-73
2023/05/01 05:23:37;;;;;;;1999.90;999.90;;;20.50;91.00;;;;;;5047351;28;20024;-73
2023/05/01 05:26:04;;;;;;;1999.90;999.90;;;20.50;90.90;;;;;;5044219;28;20399;-73
2023/05/01 05:28:32;;;;;;;1999.90;999.90;;;20.50;90.80;;;;;;5050255;28;20039;-72
2023/05/01 05:30:59;;;;;;;1999.90;999.90;;;20.50;90.70;;;;;;5052170;28;20487;-72
2023/05/01 05:33:27;;;;;;;1999.90;999.90;;;20.50;91.00;;;;;;5051615;28;20025;-74
2023/05/01 05:35:55;;;;;;;1999.90;999.90;;;20.50;91.40;;;;;;5043316;28;20033;-71
2023/05/01 05:38:22;;;;;;;1999.90;999.90;;;20.50;91.10;;;;;;5045980;28;20028;-71
2023/05/01 05:40:50;;;;;;;1999.90;999.90;;;20.40;91.30;;;;;;5047954;28;20063;-71
2023/05/01 05:43:18;;;;;;;1999.90;999.90;;;20.40;91.50;;;;;;5050647;28;20017;-72
2023/05/01 05:45:45;;;;;;;1999.90;999.90;;;20.40;91.30;;;;;;5048036;28;20071;-73
2023/05/01 05:48:13;;;;;;;1999.90;999.90;;;20.40;91.40;;;;;;5041777;28;20102;-71
2023/05/01 05:50:40;;;;;;;1999.90;999.90;;;20.40;91.50;;;;;;5043980;28;20013;-72
2023/05/01 05:53:08;;;;;;;1999.90;999.90;;;20.40;91.70;;;;;;5054219;28;20488;-71
2023/05/01 05:55:36;;;;;;;1999.90;999.90;;;20.30;91.80;;;;;;5038948;28;20039;-72
2023/05/01 05:58:03;;;;;;;1999.90;999.90;;;20.20;91.50;;;;;;5049964;28;20024;-72
2023/05/01 06:00:31;;;;;;;1999.90;999.90;;;20.20;91.50;;;;;;5051245;28;20400;-72
2023/05/01 06:02:59;;;;;;;1999.90;999.90;;;20.10;91.50;;;;;;5057005;28;20036;-72
2023/05/01 06:05:26;;;;;;;1999.90;999.90;;;20.10;91.20;;;;;;5048624;28;20028;-71
2023/05/01 06:07:53;;;;;;;1999.90;999.90;;;20.00;91.10;;;;;;5053351;28;20033;-73
2023/05/01 06:10:21;;;;;;;1999.90;999.90;;;20.00;91.20;;;;;;5049169;28;20124;-71
2023/05/01 06:12:49;;;;;;;1999.90;999.90;;;20.10;91.20;;;;;;5049726;28;20028;-71
2023/05/01 06:15:16;;;;;;;1999.90;999.90;;;20.00;91.00;;;;;;5050332;28;20126;-71
2023/05/01 06:17:44;;;;;;;1999.90;999.90;;;19.90;91.30;;;;;;5054120;28;20502;-71
2023/05/01 06:20:12;;;;;;;1999.90;999.90;;;19.70;91.50;;;;;;5055785;28;20044;-72
2023/05/01 06:22:40;;;;;;;1999.90;999.90;;;19.70;91.40;;;;;;5048707;28;20113;-72
2023/05/01 06:25:08;;;;;;;1999.90;999.90;;;19.60;91.60;;;;;;5041117;28;20558;-73
2023/05/01 06:27:36;;;;;;;1999.90;999.90;;;19.60;92.20;;;;;;5056793;28;20041;-72
2023/05/01 06:30:04;;;;;;;1999.90;999.90;;;19.70;92.10;;;;;;5048255;28;20044;-72
2023/05/01 06:32:31;;;;;;;1999.90;999.90;;;19.60;92.00;;;;;;5051260;28;20391;-74
2023/05/01 06:34:58;;;;;;;1999.90;999.90;;;19.70;91.90;;;;;;5046688;28;20025;-72
2023/05/01 06:37:26;;;;;;;1999.90;999.90;;;19.70;91.90;;;;;;5044098;28;20115;-72
2023/05/01 06:39:53;;;;;;;1999.90;999.90;;;19.60;92.00;;;;;;5046231;28;20028;-72
2023/05/01 06:42:20;;;;;;;1999.90;999.90;;;19.50;92.30;;;;;;5055710;28;20159;-71
2023/05/01 06:44:48;;;;;;;1999.90;999.90;;;19.40;92.20;;;;;;5046064;28;22474;-72
2023/05/01 06:47:15;;;;;;;1999.90;999.90;;;19.20;92.20;;;;;;5051269;28;20041;-71
2023/05/01 06:49:42;;;;;;;1999.90;999.90;;;19.00;92.10;;;;;;5043402;28;20544;-71
2023/05/01 06:52:10;;;;;;;1999.90;999.90;;;18.80;92.30;;;;;;5051616;28;20492;-71
2023/05/01 06:54:37;;;;;;;1999.90;999.90;;;18.80;92.30;;;;;;5047165;28;20025;-71
2023/05/01 06:57:05;;;;;;;1999.90;999.90;;;18.60;92.20;;;;;;5048231;28;20058;-71
2023/05/01 06:59:32;;;;;;;1999.90;999.90;;;18.50;92.70;;;;;;5043535;28;20036;-71
2023/05/01 07:01:59;;;;;;;1999.90;999.90;;;18.40;92.90;;;;;;5049950;28;20040;-71
2023/05/01 07:04:27;;;;;;;1999.90;999.90;;;18.30;92.80;;;;;;5049898;28;20058;-71
2023/05/01 07:06:54;;;;;;;1999.90;999.90;;;18.10;93.20;;;;;;5039547;28;20038;-72
2023/05/01 07:09:21;;;;;;;1999.90;999.90;;;18.00;93.50;;;;;;5042538;28;20028;-71
2023/05/01 07:11:49;;;;;;;1999.90;999.90;;;17.90;93.80;;;;;;5031039;28;20036;-71
2023/05/01 07:14:16;;;;;;;1999.90;999.90;;;17.70;93.90;;;;;;5056810;28;20029;-71
2023/05/01 07:16:44;;;;;;;1999.90;999.90;;;17.60;94.40;;;;;;5039867;28;20094;-71
2023/05/01 07:19:12;;;;;;;1999.90;999.90;;;17.40;94.40;;;;;;5047611;28;20053;-71
2023/05/01 07:21:40;;;;;;;1999.90;999.90;;;17.30;94.60;;;;;;5048234;28;20439;-69
2023/05/01 07:24:08;;;;;;;1999.90;999.90;;;17.20;94.70;;;;;;5045932;28;20090;-72
2023/05/01 07:26:37;;;;;;;1999.90;999.90;;;17.10;94.80;;;;;;5042958;28;20041;-70
2023/05/01 07:29:05;;;;;;;1999.90;999.90;;;17.00;95.20;;;;;;5044874;28;20534;-71
2023/05/01 07:31:32;;;;;;;1999.90;999.90;;;16.90;95.30;;;;;;5044041;28;21529;-71
2023/05/01 07:33:59;;;;;;;1999.90;999.90;;;16.80;95.50;;;;;;5049620;28;20030;-73
2023/05/01 07:36:27;;;;;;;1999.90;999.90;;;16.70;95.40;;;;;;5042053;28;20052;-72
2023/05/01 07:38:56;;;;;;;1999.90;999.90;;;16.60;95.60;;;;;;5055117;28;20416;-72
2023/05/01 07:41:24;;;;;;;1999.90;999.90;;;16.50;95.80;;;;;;5040552;28;20086;-70
2023/05/01 07:43:51;;;;;;;1999.90;999.90;;;16.50;96.10;;;;;;5048739;28;20558;-71
2023/05/01 07:46:18;;;;;;;1999.90;999.90;;;16.40;96.30;;;;;;5041142;28;20047;-72
2023/05/01 07:48:46;;;;;;;1999.90;999.90;;;16.30;96.60;;;;;;5042636;28;20479;-71
2023/05/01 07:51:13;;;;;;;1999.90;999.90;;;16.20;97.10;;;;;;5046827;28;20017;-71
2023/05/01 07:53:41;;;;;;;1999.90;999.90;;;16.10;97.40;;;;;;5060083;28;20492;-73
2023/05/01 07:56:11;;;;;;;1999.90;999.90;;;16.00;97.50;;;;;;5045086;28;20108;-74
2023/05/01 07:58:40;;;;;;;1999.90;999.90;;;15.90;97.80;;;;;;5049576;28;20043;-73
2023/05/01 08:01:08;;;;;;;1999.90;999.90;;;15.90;98.10;;;;;;5049192;28;20553;-72
2023/05/01 08:03:35;;;;;;;1999.90;999.90;;;15.70;98.40;;;;;;5052555;28;20041;-70
2023/05/01 08:06:02;;;;;;;1999.90;999.90;;;15.70;98.90;;;;;;5051834;28;20056;-70
2023/05/01 08:08:30;;;;;;;1999.90;999.90;;;15.60;99.20;;;;;;5053819;28;20029;-71
2023/05/01 08:10:57;;;;;;;1999.90;999.90;;;15.50;99.60;;;;;;5041830;28;20128;-72
2023/05/01 08:13:25;;;;;;;1999.90;999.90;;;15.50;99.50;;;;;;5047592;28;20024;-71
2023/05/01 08:15:52;;;;;;;1999.90;999.90;;;15.40;99.50;;;;;;5047091;28;20064;-70
2023/05/01 08:18:19;;;;;;;1999.90;999.90;;;15.40;99.70;;;;;;5050559;28;20029;-71
2023/05/01 08:20:47;;;;;;;1999.90;999.90;;;15.30;99.90;;;;;;5044670;28;20025;-70
2023/05/01 08:23:16;;;;;;;1999.90;999.90;;;15.30;99.90;;;;;;5049164;28;20108;-71
2023/05/01 08:25:49;;;;;;;1999.90;999.90;;;15.20;99.90;;;;;;5050845;28;20028;-71
2023/05/01 08:28:19;;;;;;;1999.90;999.90;;;15.10;99.90;;;;;;5053333;28;20064;-70
2023/05/01 08:30:48;;;;;;;1999.90;999.90;;;15.00;99.90;;;;;;5044184;28;20029;-71
2023/05/01 08:33:15;;;;;;;1999.90;999.90;;;15.00;99.90;;;;;;5047353;28;20488;-71
2023/05/01 08:35:43;;;;;;;1999.90;999.90;;;14.90;99.90;;;;;;5042206;28;20048;-71
2023/05/01 08:38:11;;;;;;;1999.90;999.90;;;14.90;99.90;;;;;;5058055;28;20020;-71
2023/05/01 08:40:40;;;;;;;1999.90;999.90;;;14.80;99.90;;;;;;5052916;28;20120;-71
2023/05/01 08:43:08;;;;;;;1999.90;999.90;;;14.80;99.90;;;;;;5048965;28;20029;-71
2023/05/01 08:45:37;;;;;;;1999.90;999.90;;;14.80;99.90;;;;;;5047177;28;20029;-70
2023/05/01 08:48:10;;;;;;;1999.90;999.90;;;14.90;99.90;;;;;;5049950;28;20440;-70
2023/05/01 08:50:40;;;;;;;1999.90;999.90;;;14.90;99.90;;;;;;5041419;28;20033;-71
2023/05/01 08:53:11;;;;;;;1999.90;999.90;;;14.80;99.90;;;;;;5044746;28;20029;-72
2023/05/01 08:55:39;;;;;;;1999.90;999.90;;;14.80;99.90;;;;;;5043667;28;20029;-71
2023/05/01 08:58:08;;;;;;;1999.90;999.90;;;14.70;99.90;;;;;;5060971;28;20028;-71
2023/05/01 09:00:36;;;;;;;1999.90;999.90;;;14.60;99.90;;;;;;5039451;28;20059;-70
2023/05/01 09:03:04;;;;;;;1999.90;999.90;;;14.50;99.90;;;;;;5048909;28;20044;-71
2023/05/01 09:05:32;;;;;;;1999.90;999.90;;;14.50;99.90;;;;;;5049697;28;20052;-70
2023/05/01 09:08:00;;;;;;;1999.90;999.90;;;14.30;99.90;;;;;;5054691;28;20037;-70
2023/05/01 09:10:29;;;;;;;1999.90;999.90;;;14.30;99.90;;;;;;5039393;28;20621;-71
2023/05/01 09:13:00;;;;;;;1999.90;999.90;;;14.30;99.90;;;;;;5049305;28;20098;-72
2023/05/01 09:15:29;;;;;;;1999.90;999.90;;;14.20;99.90;;;;;;5048943;28;20671;-70
2023/05/01 09:17:59;;;;;;;1999.90;999.90;;;14.10;99.90;;;;;;5057060;28;20036;-71
2023/05/01 09:20:27;;;;;;;1999.90;999.90;;;13.90;99.90;;;;;;5044912;28;20384;-71
2023/05/01 09:22:56;;;;;;;1999.90;999.90;;;13.90;99.90;;;;;;5057729;28;20033;-70
2023/05/01 09:25:23;;;;;;;1999.90;999.90;;;13.80;99.90;;;;;;5050822;28;20079;-71
2023/05/01 09:27:51;;;;;;;1999.90;999.90;;;13.70;99.90;;;;;;5052556;28;20036;-70
2023/05/01 09:30:35;;;;;;;1999.90;999.90;;;13.70;99.90;;;;;;5053308;28;20116;-70
2023/05/01 09:33:16;;;;;;;1999.90;999.90;;;13.60;99.90;;;;;;5052335;28;20041;-70
2023/05/01 09:35:58;;;;;;;1999.90;999.90;;;13.50;99.90;;;;;;5047661;28;20384;-71
2023/05/01 09:38:28;;;;;;;1999.90;999.90;;;13.40;99.90;;;;;;5054880;28;20029;-71
2023/05/01 09:41:05;;;;;;;1999.90;999.90;;;13.40;99.90;;;;;;5049493;28;20032;-71
2023/05/01 09:43:32;;;;;;;1999.90;999.90;;;13.30;99.90;;;;;;5051643;28;20055;-70
2023/05/01 09:46:12;;;;;;;1999.90;999.90;;;13.30;99.90;;;;;;5048140;28;20040;-71
2023/05/01 09:48:39;;;;;;;1999.90;999.90;;;13.20;99.90;;;;;;5050229;28;20067;-71
2023/05/01 09:51:28;;;;;;;1999.90;999.90;;;13.10;99.90;;;;;;5051140;28;20120;-72
2023/05/01 09:54:01;;;;;;;1999.90;999.90;;;13.10;99.90;;;;;;5046608;28;20032;-71
2023/05/01 09:56:31;;;;;;;1999.90;999.90;;;13.00;99.90;;;;;;5049841;28;20044;-72
2023/05/01 09:59:13;;;;;;;1999.90;999.90;;;13.00;99.90;;;;;;5048538;28;20119;-72
2023/05/01 10:01:45;;;;;;;1999.90;999.90;;;13.00;99.90;;;;;;5039774;28;20079;-72
2023/05/01 10:04:12;;;;;;;1999.90;999.90;;;12.90;99.90;;;;;;5040267;28;20124;-72
2023/05/01 10:06:40;;;;;;;1999.90;999.90;;;12.90;99.90;;;;;;5042204;28;20535;-72
2023/05/01 10:09:16;;;;;;;1999.90;999.90;;;12.90;99.90;;;;;;5049971;28;20501;-71
2023/05/01 10:11:54;;;;;;;1999.90;999.90;;;12.80;99.90;;;;;;5048723;28;20059;-71
2023/05/01 10:14:22;;;;;;;1999.90;999.90;;;12.80;99.90;;;;;;5045150;28;20063;-70
2023/05/01 10:16:53;;;;;;;1999.90;999.90;;;12.80;99.90;;;;;;5048654;28;20032;-70
2023/05/01 10:19:20;;;;;;;1999.90;999.90;;;12.80;99.90;;;;;;5044152;28;20025;-71
2023/05/01 10:21:48;;;;;;;1999.90;999.90;;;12.80;99.90;;;;;;5046902;28;20021;-72
2023/05/01 10:24:15;;;;;;;1999.90;999.90;;;12.70;99.90;;;;;;5047724;28;20029;-72
2023/05/01 10:26:43;;;;;;;1999.90;999.90;;;12.60;99.90;;;;;;5036796;28;20041;-72
2023/05/01 10:29:11;;;;;;;1999.90;999.90;;;12.60;99.90;;;;;;5047092;28;20029;-72
2023/05/01 10:31:39;;;;;;;1999.90;999.90;;;12.60;99.90;;;;;;5045441;28;20103;-71
2023/05/01 10:34:07;;;;;;;1999.90;999.90;;;12.60;99.90;;;;;;5041283;28;20041;-71
2023/05/01 10:36:39;;;;;;;1999.90;999.90;;;12.50;99.90;;;;;;5042816;28;20033;-71
2023/05/01 10:39:31;;;;;;;1999.90;999.90;;;12.40;99.90;;;;;;5048812;28;20036;-69
2023/05/01 10:41:58;;;;;;;1999.90;999.90;;;12.50;99.90;;;;;;5047280;28;20029;-71
2023/05/01 10:44:27;;;;;;;1999.90;999.90;;;12.50;99.90;;;;;;5044375;28;22434;-71
2023/05/01 10:46:55;;;;;;;1999.90;999.90;;;12.40;99.90;;;;;;5046865;28;20137;-70
2023/05/01 10:49:22;;;;;;;1999.90;999.90;;;12.50;99.90;;;;;;5047542;28;20562;-71
2023/05/01 10:51:58;;;;;;;1999.90;999.90;;;12.40;99.90;;;;;;5045450;28;20033;-71
2023/05/01 10:54:33;;;;;;;1999.90;999.90;;;12.40;99.90;;;;;;5048435;28;20040;-71
2023/05/01 10:57:05;;;;;;;1999.90;999.90;;;12.30;99.90;;;;;;5050162;28;20025;-72
2023/05/01 11:00:04;;;;;;;1999.90;999.90;;;12.20;99.90;;;;;;5042171;28;20033;-73
2023/05/01 11:02:31;;;;;;;1999.90;999.90;;;12.20;99.90;;;;;;5018035;28;20045;-73
2023/05/01 11:04:59;;;;;;;1999.90;999.90;;;12.10;99.90;;;;;;5044387;28;20033;-71
2023/05/01 11:07:27;;;;;;;1999.90;999.90;;;12.10;99.90;;;;;;5050725;28;20149;-73
2023/05/01 11:09:58;;;;;;;1999.90;999.90;;;12.10;99.90;;;;;;5042797;28;20076;-73
2023/05/01 11:12:47;;;;;;;1999.90;999.90;;;12.10;99.90;;;;;;5034551;28;20434;-76
2023/05/01 11:15:29;;;;;;;1999.90;999.90;;;12.10;99.90;;;;;;5041615;28;20499;-72
2023/05/01 11:17:57;;;;;;;1999.90;999.90;;;12.00;99.90;;;;;;5054148;28;20392;-71
2023/05/01 11:20:24;;;;;;;1999.90;999.90;;;11.90;99.90;;;;;;5048258;28;20021;-72
2023/05/01 11:22:53;;;;;;;1999.90;999.90;;;11.90;99.90;;;;;;5046582;28;20025;-72
2023/05/01 11:25:32;;;;;;;1999.90;999.90;;;11.80;99.90;;;;;;5045566;28;20025;-72
2023/05/01 11:28:05;;;;;;;1999.90;999.90;;;11.80;99.90;;;;;;5046090;28;20557;-71
2023/05/01 11:30:39;;;;;;;1999.90;999.90;;;11.80;99.90;;;;;;5045564;28;20115;-71
2023/05/01 11:33:07;;;;;;;1999.90;999.90;;;11.70;99.90;;;;;;5043712;28;20029;-71
2023/05/01 11:35:35;;;;;;;1999.90;999.90;;;11.60;99.90;;;;;;5040558;28;20025;-70
2023/05/01 11:38:02;;;;;;;1999.90;999.90;;;11.60;99.90;;;;;;5048109;28;20472;-71
2023/05/01 11:40:34;;;;;;;1999.90;999.90;;;11.50;99.90;;;;;;5046371;28;20040;-72
2023/05/01 11:43:06;;;;;;;1999.90;999.90;;;11.40;99.90;;;;;;5051833;28;20067;-72
2023/05/01 11:45:35;;;;;;;1999.90;999.90;;;11.40;99.90;;;;;;5051163;28;20033;-72
2023/05/01 11:48:04;;;;;;;1999.90;999.90;;;11.40;99.90;;;;;;5055432;28;20112;-71
2023/05/01 11:50:38;;;;;;;1999.90;999.90;;;11.40;99.90;;;;;;5053403;28;20029;-73
2023/05/01 11:53:14;;;;;;;1999.90;999.90;;;11.30;99.90;;;;;;5056032;28;20116;-68
2023/05/01 11:55:42;;;;;;;1999.90;999.90;;;11.30;99.90;;;;;;5040351;28;20423;-72
2023/05/01 11:58:10;;;;;;;1999.90;999.90;;;11.20;99.90;;;;;;5056259;28;20440;-71
2023/05/01 12:00:41;;;;;;;1999.90;999.90;;;11.20;99.90;;;;;;5048046;28;20074;-71
2023/05/01 12:03:11;;;;;;;1999.90;999.90;;;11.10;99.90;;;;;;5051655;28;21303;-71
2023/05/01 12:05:41;;;;;;;1999.90;999.90;;;11.10;99.90;;;;;;5047196;28;20030;-72
2023/05/01 12:08:10;;;;;;;1999.90;999.90;;;11.00;99.90;;;;;;5050987;28;20029;-71
2023/05/01 12:10:40;;;;;;;1999.90;999.90;;;11.00;99.90;;;;;;5040420;28;20530;-70